| Date | Time | Temp. (oF) | Dew Point (oF) | Rel. Hum. (%) | Press. (in.) | Wind Dir. | Wind Speed (mph) | Hourly Rainfall (in.) |
|
|---|---|---|---|---|---|---|---|---|---|
| 1 | 03/19 | 00:00 | 43 | 33 | 70 | 29.78 | W | 0 | 0.00 |
| 2 | 03/18 | 23:00 | 46 | 33 | 62 | 29.78 | W | 0 | 0.00 |
| 3 | 03/18 | 22:00 | 48 | 33 | 56 | 29.78 | W | 0 | 0.00 |
| 4 | 03/18 | 21:00 | 52 | 31 | 45 | 29.76 | W | 0 | 0.00 |
| 5 | 03/18 | 20:00 | 57 | 29 | 35 | 29.74 | W | 0 | 0.00 |
| 6 | 03/18 | 19:00 | 64 | 28 | 26 | 29.73 | W | 0 | 0.00 |
| 7 | 03/18 | 18:00 | 67 | 27 | 23 | 29.73 | NW | 6 | 0.00 |
| 8 | 03/18 | 17:00 | 67 | 27 | 23 | 29.74 | WSW | 0 | 0.00 |
| 9 | 03/18 | 16:00 | 66 | 29 | 26 | 29.76 | WSW | 3 | 0.00 |
| 10 | 03/18 | 15:00 | 66 | 30 | 27 | 29.78 | WNW | 0 | 0.00 |
| 11 | 03/18 | 14:00 | 65 | 34 | 33 | 29.81 | WNW | 0 | 0.00 |
| 12 | 03/18 | 13:00 | 64 | 34 | 34 | 29.84 | N | 0 | 0.00 |
| 13 | 03/18 | 12:00 | 62 | 39 | 43 | 29.86 | NW | 0 | 0.00 |
| 14 | 03/18 | 11:00 | 58 | 36 | 44 | 29.88 | N | 0 | 0.00 |
| 15 | 03/18 | 10:00 | 51 | 38 | 62 | 29.89 | ESE | 0 | 0.00 |
| 16 | 03/18 | 09:00 | 41 | 39 | 93 | 29.90 | SSE | 0 | 0.00 |
| 17 | 03/18 | 08:00 | 33 | 31 | 95 | 29.90 | SSW | 0 | 0.00 |
| 18 | 03/18 | 07:00 | 33 | 30 | 92 | 29.89 | SSW | 0 | 0.00 |
| 19 | 03/18 | 06:00 | 34 | 31 | 91 | 29.89 | NE | 0 | 0.00 |
| 20 | 03/18 | 05:00 | 34 | 31 | 92 | 29.88 | SW | 0 | 0.00 |
| 21 | 03/18 | 04:00 | 34 | 30 | 87 | 29.88 | SW | 0 | 0.00 |
| 22 | 03/18 | 03:00 | 35 | 30 | 82 | 29.89 | SW | 0 | 0.00 |
| 23 | 03/18 | 02:00 | 37 | 31 | 81 | 29.90 | SW | 0 | 0.00 |
| 24 | 03/18 | 01:00 | 38 | 31 | 78 | 29.91 | SW | 0 | 0.00 |